TimeEDT,TemperatureF,Dew PointF,Humidity,Sea Level PressureIn,VisibilityMPH,Wind Direction,Wind SpeedMPH,Gust SpeedMPH,PrecipitationIn,Events,Conditions,WindDirDegrees,DateUTC
12:51 AM,75.9,64.0,67,30.06,10.0,South,5.8,-,N/A,,Clear,190,2013-06-23 04:51:00
1:51 AM,75.0,64.0,69,30.06,10.0,South,4.6,-,N/A,,Clear,190,2013-06-23 05:51:00
2:51 AM,75.0,64.9,71,30.06,10.0,SSW,5.8,-,N/A,,Clear,210,2013-06-23 06:51:00
3:51 AM,75.0,64.9,71,30.06,10.0,SSW,5.8,-,N/A,,Clear,210,2013-06-23 07:51:00
4:51 AM,73.9,64.9,73,30.07,10.0,SSW,5.8,-,N/A,,Mostly Cloudy,200,2013-06-23 08:51:00
5:51 AM,73.0,64.9,76,30.08,8.0,SSW,6.9,-,N/A,,Clear,200,2013-06-23 09:51:00
6:51 AM,73.9,66.0,76,30.09,8.0,South,6.9,-,N/A,,Clear,180,2013-06-23 10:51:00
7:51 AM,75.9,66.9,74,30.08,8.0,South,9.2,-,N/A,,Clear,180,2013-06-23 11:51:00
8:51 AM,80.1,68.0,67,30.09,10.0,South,11.5,-,N/A,,Partly Cloudy,190,2013-06-23 12:51:00
9:51 AM,82.0,66.9,60,30.09,10.0,South,9.2,-,N/A,,Clear,190,2013-06-23 13:51:00
10:51 AM,82.0,68.0,62,30.09,9.0,WNW,10.4,-,N/A,,Clear,290,2013-06-23 14:51:00
11:51 AM,84.9,68.0,57,30.07,10.0,WSW,9.2,-,N/A,,Clear,250,2013-06-23 15:51:00
12:51 PM,82.0,66.0,58,30.08,10.0,WNW,11.5,-,N/A,,Partly Cloudy,290,2013-06-23 16:51:00
1:51 PM,81.0,66.0,60,30.07,10.0,WSW,9.2,-,N/A,,Clear,240,2013-06-23 17:51:00
2:51 PM,84.0,64.9,53,30.06,10.0,West,11.5,-,N/A,,Clear,260,2013-06-23 18:51:00
3:51 PM,82.0,64.9,56,30.05,10.0,West,6.9,-,N/A,,Clear,270,2013-06-23 19:51:00
4:51 PM,81.0,64.0,56,30.05,10.0,WNW,6.9,-,N/A,,Clear,300,2013-06-23 20:51:00
5:51 PM,82.9,64.0,53,30.04,10.0,West,6.9,-,N/A,,Clear,260,2013-06-23 21:51:00
6:51 PM,82.0,64.9,56,30.02,10.0,SSW,5.8,-,N/A,,Clear,210,2013-06-23 22:51:00
7:51 PM,82.9,64.0,53,30.02,10.0,SSW,5.8,-,N/A,,Clear,210,2013-06-23 23:51:00
8:51 PM,80.1,66.0,62,30.02,10.0,South,4.6,-,N/A,,Clear,180,2013-06-24 00:51:00
9:51 PM,78.1,66.0,66,30.03,10.0,South,4.6,-,N/A,,Clear,180,2013-06-24 01:51:00
10:51 PM,78.1,66.9,68,30.04,10.0,South,8.1,-,N/A,,Clear,170,2013-06-24 02:51:00
11:51 PM,78.1,66.0,66,30.05,10.0,South,9.2,-,N/A,,Clear,190,2013-06-24 03:51:00